createdAt,value
2018-02-06T00:02:21.547Z,10.15
2018-02-06T00:04:50.974Z,10.57
2018-02-06T00:07:19.629Z,10.15
2018-02-06T00:09:48.297Z,10.88
2018-02-06T00:12:17.139Z,9.73
2018-02-06T00:14:45.723Z,10.77
2018-02-06T00:17:14.574Z,9.63
2018-02-06T00:19:43.162Z,9.75
2018-02-06T00:22:15.078Z,10.43
2018-02-06T00:24:44.426Z,10.68
2018-02-06T00:27:13.026Z,10.70
2018-02-06T00:29:42.419Z,10.18
2018-02-06T00:32:11.703Z,10.23
2018-02-06T00:34:40.378Z,9.85
2018-02-06T00:37:08.882Z,9.98
2018-02-06T00:39:38.390Z,8.02
2018-02-06T00:42:06.891Z,10.18
2018-02-06T00:44:35.552Z,10.43
2018-02-06T00:47:04.942Z,10.25
2018-02-06T00:49:33.579Z,9.05
2018-02-06T00:52:02.114Z,9.88
2018-02-06T00:54:31.466Z,9.65
2018-02-06T00:57:00.051Z,9.48
2018-02-06T00:59:28.696Z,9.23
2018-02-06T01:01:57.999Z,9.45
2018-02-06T01:04:27.298Z,9.40
2018-02-06T01:06:56.553Z,9.52
2018-02-06T01:09:25.342Z,9.68
2018-02-06T01:11:53.873Z,9.88
2018-02-06T01:14:23.081Z,10.07
2018-02-06T01:16:51.754Z,9.25
2018-02-06T01:19:21.130Z,9.40
2018-02-06T01:21:50.451Z,9.10
2018-02-06T01:24:19.788Z,8.93
2018-02-06T01:26:48.417Z,9.98
2018-02-06T01:29:17.798Z,9.82
2018-02-06T01:31:46.332Z,9.05
2018-02-06T01:34:14.879Z,10.30
2018-02-06T01:36:43.772Z,9.25
2018-02-06T01:39:13.174Z,8.23
2018-02-06T01:41:42.640Z,9.07
2018-02-06T01:44:11.234Z,9.02
2018-02-06T01:46:39.949Z,8.95
2018-02-06T01:49:09.427Z,9.02
2018-02-06T01:51:38.181Z,9.05
2018-02-06T01:54:06.831Z,9.32
2018-02-06T01:56:36.150Z,9.02
2018-02-06T01:59:04.780Z,9.15
2018-02-06T02:01:33.367Z,9.88
2018-02-06T02:04:02.016Z,9.05
2018-02-06T02:06:31.091Z,9.32
2018-02-06T02:09:00.937Z,8.63
2018-02-06T02:11:29.565Z,9.38
2018-02-06T02:13:58.898Z,9.50
2018-02-06T02:16:27.463Z,8.40
2018-02-06T02:18:56.038Z,8.73
2018-02-06T02:21:25.359Z,8.88
2018-02-06T02:23:53.942Z,9.65
2018-02-06T02:26:22.703Z,8.68
2018-02-06T02:28:52.107Z,8.68
2018-02-06T02:31:21.531Z,8.60
2018-02-06T02:33:50.169Z,8.85
2018-02-06T02:36:18.863Z,8.10
2018-02-06T02:38:47.438Z,9.13
2018-02-06T02:41:16.044Z,9.45
2018-02-06T04:40:04.424Z,10.18
2018-02-06T04:42:32.454Z,11.00
2018-02-06T04:45:00.499Z,9.80
2018-02-06T04:47:29.193Z,10.75
2018-02-06T04:49:58.091Z,9.50
2018-02-06T04:52:26.866Z,10.18
2018-02-06T04:54:55.720Z,10.30
2018-02-06T04:57:23.642Z,11.05
2018-02-06T04:59:51.576Z,11.55
2018-02-06T05:02:19.951Z,11.50
2018-02-06T05:04:47.917Z,10.93
2018-02-06T05:07:15.889Z,10.15
2018-02-06T05:09:43.843Z,10.38
2018-02-06T05:12:11.812Z,11.10
2018-02-06T05:14:39.816Z,11.27
2018-02-06T05:17:07.907Z,10.05
2018-02-06T05:19:35.933Z,11.05
2018-02-06T05:22:03.892Z,10.77
2018-02-06T05:24:31.871Z,10.52
2018-02-06T05:27:00.086Z,10.45
2018-02-06T05:29:28.165Z,10.05
2018-02-06T05:31:56.074Z,11.10
2018-02-06T05:34:23.980Z,10.40
2018-02-06T05:36:51.923Z,9.13
2018-02-06T05:39:20.629Z,9.52
2018-02-06T05:41:49.571Z,10.93
2018-02-06T05:44:17.908Z,9.55
2018-02-06T05:46:45.885Z,10.23
2018-02-06T05:49:13.986Z,10.23
2018-02-06T05:51:41.966Z,9.77
2018-02-06T05:54:10.629Z,12.43
2018-02-06T05:56:38.863Z,11.48
2018-02-06T05:59:07.647Z,11.55
2018-02-06T06:01:36.376Z,11.23
2018-02-06T06:04:04.775Z,11.80
2018-02-06T06:06:32.894Z,10.38
2018-02-06T06:09:00.973Z,12.48
2018-02-06T06:11:29.050Z,11.27
2018-02-06T06:13:57.099Z,11.55
2018-02-06T06:16:25.061Z,12.15
2018-02-06T06:18:54.315Z,11.15
2018-02-06T06:21:22.559Z,10.15
2018-02-06T06:23:50.614Z,9.10
2018-02-06T06:26:18.548Z,10.25
2018-02-06T06:28:47.438Z,9.98
2018-02-06T06:31:15.492Z,10.82
2018-02-06T06:33:43.531Z,11.20
2018-02-06T06:36:11.576Z,10.32
2018-02-06T06:38:39.547Z,10.23
2018-02-06T06:41:08.425Z,10.68
2018-02-06T06:43:36.531Z,11.80
2018-02-06T06:46:04.473Z,10.10
2018-02-06T06:48:33.369Z,11.55
2018-02-06T06:51:01.606Z,10.27
2018-02-06T06:53:29.510Z,11.05
2018-02-06T06:55:58.213Z,10.15
2018-02-06T06:58:26.335Z,10.95
2018-02-06T07:00:55.210Z,11.52
2018-02-06T07:03:23.379Z,11.57
2018-02-06T07:05:51.438Z,12.50
2018-02-06T07:08:19.356Z,11.88
2018-02-06T07:10:48.244Z,11.30
2018-02-06T07:13:17.046Z,11.60
2018-02-06T07:15:45.881Z,11.35
2018-02-06T07:18:13.850Z,11.45
2018-02-06T07:20:41.815Z,11.38
2018-02-06T07:23:09.780Z,10.45
2018-02-06T07:25:38.603Z,11.20
2018-02-06T07:28:06.584Z,11.27
2018-02-06T07:30:35.738Z,10.98
2018-02-06T07:33:03.853Z,11.82
2018-02-06T07:35:32.807Z,11.35
2018-02-06T07:38:01.018Z,12.68
2018-02-06T07:40:29.308Z,10.63
2018-02-06T07:42:58.538Z,11.75
2018-02-06T07:45:26.672Z,11.48
2018-02-06T07:47:55.922Z,11.65
2018-02-06T07:50:24.144Z,11.63
2018-02-06T07:52:54.140Z,10.60
2018-02-06T07:55:22.173Z,13.10
2018-02-06T07:57:52.075Z,12.48
2018-02-06T08:00:20.190Z,12.32
2018-02-06T08:02:48.611Z,12.00
2018-02-06T08:05:16.767Z,12.20
2018-02-06T08:07:45.862Z,11.12
2018-02-06T08:10:14.678Z,11.57
2018-02-06T08:12:42.783Z,11.60
2018-02-06T08:15:10.915Z,12.07
2018-02-06T08:17:38.905Z,12.45
2018-02-06T08:20:06.911Z,11.75
2018-02-06T08:22:35.577Z,11.85
2018-02-06T08:25:03.691Z,11.85
2018-02-06T08:27:31.745Z,11.77
2018-02-06T08:29:59.695Z,11.40
2018-02-06T08:32:27.963Z,12.18
2018-02-06T08:34:55.909Z,12.18
2018-02-06T08:37:24.309Z,11.82
2018-02-06T08:39:52.546Z,12.50
2018-02-06T08:42:20.666Z,11.45
2018-02-06T08:44:48.889Z,11.40
2018-02-06T08:47:17.522Z,11.15
2018-02-06T08:49:45.548Z,12.20
2018-02-06T08:52:13.812Z,13.02
2018-02-06T08:54:42.016Z,14.43
2018-02-06T08:57:11.014Z,13.55
2018-02-06T08:59:39.664Z,12.57
2018-02-06T09:02:07.984Z,13.05
2018-02-06T09:04:35.942Z,12.35
2018-02-06T09:07:04.541Z,13.98
2018-02-06T09:09:32.713Z,12.98
2018-02-06T09:12:00.867Z,13.02
2018-02-06T09:14:28.980Z,14.50
2018-02-06T09:16:57.602Z,15.85
2018-02-06T09:19:25.755Z,15.38
2018-02-06T09:21:54.704Z,16.80
2018-02-06T09:24:22.879Z,16.80
2018-02-06T09:26:51.155Z,13.52
2018-02-06T09:29:19.247Z,14.43
2018-02-06T09:31:48.103Z,14.80
2018-02-06T09:34:16.160Z,13.00
2018-02-06T09:36:44.384Z,13.18
2018-02-06T09:39:13.127Z,13.98
2018-02-06T09:41:41.130Z,13.13
2018-02-06T09:44:09.078Z,13.25
2018-02-06T09:46:37.466Z,13.57
2018-02-06T09:49:05.997Z,12.63
2018-02-06T09:51:35.376Z,12.85
2018-02-06T09:54:03.939Z,12.25
2018-02-06T09:56:32.701Z,13.48
2018-02-06T09:59:01.027Z,12.93
2018-02-06T10:01:29.846Z,14.00
2018-02-06T10:03:57.850Z,15.63
2018-02-06T10:06:26.845Z,18.50
2018-02-06T10:08:55.042Z,14.77
2018-02-06T10:11:22.986Z,12.52
2018-02-06T10:13:51.310Z,13.48
2018-02-06T10:16:19.545Z,12.23
2018-02-06T10:18:49.259Z,12.15
2018-02-06T10:21:17.453Z,12.48
2018-02-06T10:23:45.940Z,12.05
2018-02-06T10:26:13.921Z,11.40
2018-02-06T10:28:42.686Z,12.30
2018-02-06T10:31:10.675Z,13.00
2018-02-06T10:33:38.782Z,13.10
2018-02-06T10:36:06.994Z,11.50
2018-02-06T10:38:34.972Z,11.85
2018-02-06T10:41:03.206Z,11.85
2018-02-06T10:43:33.957Z,12.63
2018-02-06T10:46:01.959Z,12.68
2018-02-06T10:48:31.002Z,12.80
2018-02-06T10:50:59.260Z,11.88
2018-02-06T10:53:27.376Z,12.07
2018-02-06T10:55:55.457Z,11.05
2018-02-06T10:58:24.957Z,11.88
2018-02-06T11:00:53.275Z,10.88
2018-02-06T11:03:21.481Z,11.90
2018-02-06T11:05:49.807Z,11.98
2018-02-06T11:08:17.984Z,11.20
2018-02-06T11:10:46.181Z,12.27
2018-02-06T11:13:14.413Z,13.18
2018-02-06T11:15:43.441Z,13.18
2018-02-06T11:18:12.707Z,12.65
2018-02-06T11:20:40.907Z,12.27
2018-02-06T11:23:08.845Z,12.43
2018-02-06T11:25:37.775Z,12.23
2018-02-06T11:28:06.049Z,12.57
2018-02-06T11:30:34.168Z,12.10
2018-02-06T11:33:02.262Z,13.10
2018-02-06T11:35:30.163Z,11.52
2018-02-06T11:37:58.330Z,12.48
2018-02-06T11:40:26.522Z,12.32
2018-02-06T11:42:54.665Z,12.97
2018-02-06T11:45:22.868Z,13.10
2018-02-06T11:47:50.852Z,12.32
2018-02-06T11:50:19.117Z,12.93
2018-02-06T11:52:47.381Z,12.05
2018-02-06T11:55:15.867Z,12.00
2018-02-06T11:57:44.040Z,11.33
2018-02-06T12:00:12.296Z,12.67
2018-02-06T12:02:40.189Z,12.97
2018-02-06T12:05:08.101Z,11.60
2018-02-06T12:07:36.800Z,12.20
2018-02-06T12:10:04.989Z,13.38
2018-02-06T12:12:32.896Z,12.65
2018-02-06T12:15:00.978Z,12.70
2018-02-06T12:17:29.392Z,12.45
2018-02-06T12:19:57.579Z,13.68
2018-02-06T12:22:25.711Z,12.57
2018-02-06T12:24:53.745Z,12.27
2018-02-06T12:27:21.793Z,12.25
2018-02-06T12:29:50.627Z,12.20
2018-02-06T12:32:18.574Z,13.02
2018-02-06T12:34:46.696Z,11.80
2018-02-06T12:37:14.839Z,12.45
2018-02-06T12:39:43.013Z,11.77
2018-02-06T12:42:10.981Z,12.57
2018-02-06T12:44:38.923Z,12.30
2018-02-06T12:47:07.169Z,12.85
2018-02-06T12:49:35.147Z,12.90
2018-02-06T12:52:03.181Z,12.73
2018-02-06T12:54:31.803Z,13.25
2018-02-06T12:56:59.842Z,12.40
2018-02-06T12:59:28.606Z,13.63
2018-02-06T13:01:56.696Z,12.55
2018-02-06T13:04:25.435Z,12.77
2018-02-06T13:06:53.433Z,13.57
2018-02-06T13:09:21.384Z,12.17
2018-02-06T13:11:49.398Z,13.07
2018-02-06T13:14:18.387Z,13.32
2018-02-06T13:16:47.038Z,12.80
2018-02-06T13:19:15.000Z,12.25
2018-02-06T13:21:43.037Z,13.13
2018-02-06T13:24:11.052Z,13.05
2018-02-06T13:26:39.088Z,12.77
2018-02-06T13:29:07.621Z,12.43
2018-02-06T13:31:36.778Z,12.68
2018-02-06T13:34:04.830Z,12.82
2018-02-06T13:36:33.164Z,13.00
2018-02-06T13:39:01.346Z,11.88
2018-02-06T13:41:29.343Z,12.80
2018-02-06T13:43:57.618Z,12.48
2018-02-06T13:46:25.562Z,12.98
2018-02-06T13:48:54.269Z,14.00
2018-02-06T13:51:22.233Z,13.13
2018-02-06T13:53:50.245Z,12.73
2018-02-06T13:56:19.028Z,12.70
2018-02-06T13:58:47.280Z,12.63
2018-02-06T14:01:15.344Z,12.68
2018-02-06T14:03:43.266Z,12.37
2018-02-06T14:06:11.250Z,13.13
2018-02-06T14:08:40.217Z,12.83
2018-02-06T14:11:09.145Z,13.03
2018-02-06T14:13:37.403Z,12.98
2018-02-06T14:16:06.145Z,13.67
2018-02-06T14:18:34.047Z,13.15
2018-02-06T14:21:02.099Z,14.02
2018-02-06T14:23:30.071Z,13.95
2018-02-06T14:25:58.308Z,15.80
2018-02-06T14:28:26.522Z,17.10
2018-02-06T14:30:54.478Z,17.08
2018-02-06T14:33:22.486Z,16.02
2018-02-06T14:35:52.638Z,15.88
2018-02-06T14:38:20.894Z,17.55
2018-02-06T14:40:48.916Z,18.67
2018-02-06T14:43:17.158Z,17.77
2018-02-06T14:45:45.087Z,16.42
2018-02-06T14:48:14.309Z,15.47
2018-02-06T14:50:42.252Z,16.85
2018-02-06T14:53:11.006Z,16.10
2018-02-06T14:55:38.961Z,15.85
2018-02-06T14:58:07.358Z,15.00
2018-02-06T15:00:35.513Z,16.00
2018-02-06T15:03:03.684Z,16.92
2018-02-06T15:05:31.768Z,14.18
2018-02-06T15:07:59.810Z,16.55
2018-02-06T15:10:28.435Z,16.35
2018-02-06T15:12:56.497Z,15.02
2018-02-06T15:15:25.378Z,15.30
2018-02-06T15:17:53.476Z,15.83
2018-02-06T15:20:21.626Z,15.20
2018-02-06T15:22:50.151Z,15.95
2018-02-06T15:25:18.813Z,16.73
2018-02-06T15:27:46.749Z,15.85
2018-02-06T15:30:15.634Z,15.65
2018-02-06T15:32:43.672Z,16.15
2018-02-06T15:35:11.746Z,14.77
2018-02-06T15:37:40.051Z,15.75
2018-02-06T15:40:08.949Z,15.35
2018-02-06T15:42:37.067Z,16.12
2018-02-06T15:45:06.104Z,16.30
2018-02-06T15:47:34.023Z,16.83
2018-02-06T15:50:02.176Z,16.45
2018-02-06T15:52:30.345Z,17.25
2018-02-06T15:54:58.419Z,17.20
2018-02-06T15:57:26.719Z,17.08
2018-02-06T15:59:55.123Z,18.17
2018-02-06T16:02:24.285Z,18.17
2018-02-06T16:04:53.772Z,17.98
2018-02-06T16:07:21.847Z,17.67
2018-02-06T16:09:49.998Z,17.45
2018-02-06T16:12:18.279Z,18.12
2018-02-06T16:14:47.363Z,18.45
2018-02-06T16:17:15.514Z,20.15
2018-02-06T16:19:43.826Z,19.65
2018-02-06T16:22:12.509Z,20.45
2018-02-06T16:24:40.718Z,21.02
2018-02-06T16:27:08.834Z,18.33
2018-02-06T16:29:36.838Z,21.23
2018-02-06T16:32:04.885Z,22.58
2018-02-06T16:34:33.602Z,21.92
2018-02-06T16:37:01.733Z,19.85
2018-02-06T16:39:29.815Z,17.95
2018-02-06T16:41:57.915Z,19.40
2018-02-06T16:44:26.392Z,19.65
2018-02-06T16:46:54.897Z,18.87
2018-02-06T16:49:24.066Z,19.90
2018-02-06T16:51:52.649Z,20.35
2018-02-06T16:54:21.116Z,19.00
2018-02-06T16:56:49.600Z,19.77
2018-02-06T16:59:18.284Z,17.90
2018-02-06T17:01:47.594Z,17.60
2018-02-06T17:04:16.060Z,17.25
2018-02-06T17:06:44.298Z,18.70
2018-02-06T17:09:13.946Z,19.83
2018-02-06T17:11:41.988Z,22.10
2018-02-06T17:14:10.801Z,18.37
2018-02-06T17:16:39.175Z,17.95
2018-02-06T17:19:07.454Z,20.95
2018-02-06T17:21:35.744Z,20.65
2018-02-06T17:24:03.866Z,19.52
2018-02-06T17:26:31.897Z,21.20
2018-02-06T17:29:01.167Z,21.90
2018-02-06T17:31:29.749Z,19.55
2018-02-06T17:33:59.088Z,18.52
2018-02-06T17:36:28.802Z,17.52
2018-02-06T17:38:57.655Z,19.80
2018-02-06T17:41:26.158Z,20.25
2018-02-06T17:43:54.332Z,20.23
2018-02-06T17:46:22.859Z,18.65
2018-02-06T17:48:51.409Z,18.60
2018-02-06T17:51:20.181Z,19.08
2018-02-06T17:53:48.668Z,18.58
2018-02-06T17:56:17.022Z,18.85
2018-02-06T17:58:45.138Z,20.80
2018-02-06T18:01:13.855Z,19.60
2018-02-06T18:03:42.434Z,18.35
2018-02-06T18:06:11.001Z,18.73
2018-02-06T18:08:38.975Z,20.00
2018-02-06T18:11:07.000Z,19.35
2018-02-06T18:13:35.178Z,19.00
2018-02-06T18:16:03.193Z,19.25
2018-02-06T18:18:31.500Z,19.05
2018-02-06T18:20:59.497Z,19.00
2018-02-06T18:23:27.488Z,17.80
2018-02-06T18:25:55.376Z,18.25
2018-02-06T18:28:23.373Z,17.73
2018-02-06T18:30:51.612Z,17.40
2018-02-06T18:33:19.678Z,16.12
2018-02-06T18:35:47.683Z,19.02
2018-02-06T18:38:15.698Z,16.77
2018-02-06T18:40:44.556Z,17.30
2018-02-06T18:43:12.859Z,17.70
2018-02-06T18:45:41.706Z,17.95
2018-02-06T18:48:10.162Z,17.73
2018-02-06T18:50:38.515Z,17.00
2018-02-06T18:53:06.643Z,18.67
2018-02-06T18:55:34.940Z,18.95
2018-02-06T18:58:03.708Z,18.15
2018-02-06T19:00:31.855Z,17.77
2018-02-06T19:02:59.954Z,20.88
2018-02-06T19:05:28.254Z,19.17
2018-02-06T19:07:56.381Z,18.80
2018-02-06T19:10:24.344Z,18.55
2018-02-06T19:12:52.538Z,18.12
2018-02-06T19:15:20.696Z,18.98
2018-02-06T19:17:48.939Z,18.27
2018-02-06T19:20:17.219Z,19.02
2018-02-06T19:22:45.389Z,18.95
2018-02-06T19:25:13.521Z,19.70
2018-02-06T19:27:41.698Z,18.58
2018-02-06T19:30:09.992Z,19.40
2018-02-06T19:32:40.279Z,19.58
2018-02-06T19:35:08.572Z,19.35
2018-02-06T19:37:36.936Z,20.05
2018-02-06T19:40:04.905Z,19.90
2018-02-06T19:42:33.049Z,20.37
2018-02-06T19:45:00.975Z,20.58
2018-02-06T19:47:30.210Z,19.95
2018-02-06T19:49:58.317Z,19.10
2018-02-06T19:52:26.488Z,20.45
2018-02-06T19:54:54.703Z,20.33
2018-02-06T19:57:23.729Z,20.48
2018-02-06T19:59:51.803Z,19.98
2018-02-06T20:02:20.100Z,19.75
2018-02-06T20:04:48.693Z,19.62
2018-02-06T20:07:17.005Z,18.58
2018-02-06T20:09:45.331Z,19.10
2018-02-06T20:12:13.532Z,19.85
2018-02-06T20:14:41.649Z,19.50
2018-02-06T20:17:09.557Z,20.05
2018-02-06T20:19:37.654Z,19.50
2018-02-06T20:22:05.829Z,21.85
2018-02-06T20:24:34.179Z,20.12
2018-02-06T20:27:02.661Z,19.17
2018-02-06T20:29:30.796Z,19.92
2018-02-06T20:31:59.225Z,19.30
2018-02-06T20:34:27.272Z,20.52
2018-02-06T20:36:55.559Z,21.05
2018-02-06T20:39:23.814Z,20.77
2018-02-06T20:41:54.570Z,19.05
2018-02-06T20:44:22.849Z,21.37
2018-02-06T20:46:50.846Z,20.15
2018-02-06T20:49:20.124Z,21.55
2018-02-06T20:51:48.087Z,21.92
2018-02-06T20:54:16.438Z,20.70
2018-02-06T20:56:45.240Z,21.65
2018-02-06T20:59:13.311Z,20.70
2018-02-06T21:01:41.451Z,22.08
2018-02-06T21:04:10.244Z,21.83
2018-02-06T21:06:38.514Z,22.85
2018-02-06T21:09:06.616Z,22.17
2018-02-06T21:11:36.461Z,21.30
2018-02-06T21:14:05.263Z,21.17
2018-02-06T21:16:34.141Z,21.15
2018-02-06T21:19:02.814Z,21.35
2018-02-06T21:21:32.107Z,22.33
2018-02-06T21:24:00.581Z,21.50
2018-02-06T21:26:29.537Z,21.77
2018-02-06T21:28:59.219Z,21.90
2018-02-06T21:31:28.260Z,21.62
2018-02-06T21:33:56.912Z,21.08
2018-02-06T21:36:25.582Z,21.77
2018-02-06T21:38:53.999Z,22.15
2018-02-06T21:41:22.224Z,21.10
2018-02-06T21:43:51.867Z,22.42
2018-02-06T21:46:20.262Z,20.88
2018-02-06T21:48:48.510Z,20.98
2018-02-06T21:51:17.138Z,23.40
2018-02-06T21:53:45.690Z,21.37
2018-02-06T21:56:14.479Z,21.62
2018-02-06T21:58:42.816Z,21.92
2018-02-06T22:01:11.560Z,22.30
2018-02-06T22:03:40.596Z,21.75
2018-02-06T22:06:09.670Z,21.62
2018-02-06T22:08:39.492Z,21.02
2018-02-06T22:11:10.220Z,21.05
2018-02-06T22:13:38.611Z,20.65
2018-02-06T22:16:06.629Z,21.60
2018-02-06T22:18:35.092Z,20.62
2018-02-06T22:21:03.623Z,22.00
2018-02-06T22:23:32.090Z,20.95
2018-02-06T22:26:00.508Z,20.08
2018-02-06T22:28:29.541Z,21.92
2018-02-06T22:30:57.778Z,21.33
2018-02-06T22:33:26.348Z,21.90
2018-02-06T22:35:55.586Z,20.92
2018-02-06T22:38:24.091Z,20.90
2018-02-06T22:40:52.485Z,21.45
2018-02-06T22:43:21.084Z,23.02
2018-02-06T22:45:49.608Z,22.13
2018-02-06T22:48:17.860Z,22.23
2018-02-06T22:50:46.634Z,23.00
2018-02-06T22:53:16.805Z,21.83
2018-02-06T22:55:45.100Z,21.70
2018-02-06T22:58:13.622Z,21.00
2018-02-06T23:00:42.908Z,20.88
2018-02-06T23:03:12.254Z,21.40
2018-02-06T23:05:40.273Z,22.40
2018-02-06T23:08:08.565Z,21.85
2018-02-06T23:10:37.227Z,22.30
2018-02-06T23:13:05.366Z,23.27
2018-02-06T23:15:34.532Z,23.05
2018-02-06T23:18:03.209Z,22.15
2018-02-06T23:20:31.996Z,22.98
2018-02-06T23:23:00.320Z,21.58
2018-02-06T23:25:28.724Z,22.23
2018-02-06T23:27:57.714Z,22.35
2018-02-06T23:30:25.809Z,22.17
2018-02-06T23:32:54.880Z,22.20
2018-02-06T23:35:23.438Z,21.90
2018-02-06T23:37:52.121Z,22.23
2018-02-06T23:40:20.703Z,22.20
2018-02-06T23:42:49.069Z,21.17
2018-02-06T23:45:17.790Z,21.73
2018-02-06T23:47:46.717Z,22.20
2018-02-06T23:50:15.754Z,22.02
2018-02-06T23:52:44.348Z,23.95
2018-02-06T23:55:13.058Z,21.75
2018-02-06T23:57:40.930Z,21.50
